Time;durP1;ratioP1;P1;durP2;ratioP2;P2;SDS_P1;SDS_P2;PMS_P1;PMS_P2;Temp;Humidity;BMP_temperature;BMP_pressure;BME280_temperature;BME280_humidity;BME280_pressure;Samples;Min_cycle;Max_cycle;Signal;HPM_P1;HPM_P2
2023/10/09 00:01:13;;;;;;;9.70;5.03;;;15.20;99.90;;;;;;4997544;28;20201;-42
2023/10/09 00:03:42;;;;;;;10.50;5.17;;;15.20;99.90;;;;;;5014490;28;20522;-44
2023/10/09 00:06:13;;;;;;;11.00;5.57;;;15.20;99.90;;;;;;5014121;28;20221;-42
2023/10/09 00:08:44;;;;;;;9.07;5.27;;;15.20;99.90;;;;;;5012743;28;20178;-43
2023/10/09 00:11:18;;;;;;;7.43;5.33;;;15.20;99.90;;;;;;5012511;28;20222;-43
2023/10/09 00:13:49;;;;;;;8.30;5.37;;;15.10;99.90;;;;;;5012790;28;20622;-43
2023/10/09 00:16:34;;;;;;;10.80;5.10;;;15.10;99.90;;;;;;5012645;28;20255;-44
2023/10/09 00:22:46;;;;;;;8.03;4.97;;;15.00;99.90;;;;;;5258258;23;20309;-43
2023/10/09 00:25:21;;;;;;;7.23;4.83;;;14.90;99.90;;;;;;5008616;28;20193;-43
2023/10/09 00:27:48;;;;;;;8.37;4.90;;;14.90;99.90;;;;;;5014410;28;20197;-44
2023/10/09 00:30:21;;;;;;;7.87;4.83;;;14.90;99.90;;;;;;4991094;28;20222;-46
2023/10/09 00:33:00;;;;;;;10.13;5.30;;;14.80;99.90;;;;;;5014184;28;20155;-47
2023/10/09 00:38:22;;;;;;;9.10;4.57;;;14.70;99.90;;;;;;5013508;28;20154;-47
2023/10/09 00:41:02;;;;;;;11.43;5.63;;;14.80;99.90;;;;;;5012608;28;20209;-46
2023/10/09 00:43:28;;;;;;;7.90;5.07;;;14.70;99.90;;;;;;5014063;28;20185;-46
2023/10/09 00:45:54;;;;;;;7.37;5.03;;;14.70;99.90;;;;;;5013660;28;20661;-47
2023/10/09 00:48:31;;;;;;;8.77;4.60;;;14.70;99.90;;;;;;5012082;28;20205;-47
2023/10/09 00:51:00;;;;;;;8.77;5.13;;;14.70;99.90;;;;;;5012984;28;20580;-47
2023/10/09 00:53:34;;;;;;;10.00;5.47;;;14.60;99.90;;;;;;5013364;28;20181;-46
2023/10/09 00:56:39;;;;;;;9.97;5.10;;;14.60;99.90;;;;;;5013675;28;20533;-46
2023/10/09 00:59:14;;;;;;;11.17;5.40;;;14.60;99.90;;;;;;5011689;28;20193;-48
2023/10/09 01:01:55;;;;;;;7.70;4.50;;;14.60;99.90;;;;;;5013292;28;20243;-47
2023/10/09 01:04:29;;;;;;;8.90;4.83;;;14.60;99.90;;;;;;5016374;28;20181;-41
2023/10/09 01:07:15;;;;;;;9.97;4.90;;;14.60;99.90;;;;;;5017620;28;20211;-48
2023/10/09 01:09:44;;;;;;;9.73;5.13;;;14.70;99.90;;;;;;5012588;28;20224;-48
2023/10/09 01:12:19;;;;;;;7.93;4.73;;;14.80;99.90;;;;;;5015997;28;20189;-48
2023/10/09 01:14:45;;;;;;;9.43;4.87;;;14.80;99.90;;;;;;5018180;28;20172;-46
2023/10/09 01:17:11;;;;;;;7.37;5.00;;;14.80;99.90;;;;;;5017024;28;20243;-46
2023/10/09 01:19:42;;;;;;;9.00;4.53;;;14.90;99.90;;;;;;5017253;28;20649;-49
2023/10/09 01:22:15;;;;;;;10.10;5.10;;;15.00;99.90;;;;;;5016895;28;20220;-46
2023/10/09 01:36:39;;;;;;;10.40;4.80;;;15.50;99.90;;;;;;5014738;28;20685;-49
2023/10/09 01:39:26;;;;;;;9.80;5.00;;;15.60;99.90;;;;;;5016692;28;20227;-49
2023/10/09 01:42:00;;;;;;;8.60;4.70;;;15.70;99.90;;;;;;4997167;28;20158;-47
2023/10/09 01:44:34;;;;;;;9.93;5.33;;;15.80;99.90;;;;;;4980106;28;20189;-47
2023/10/09 01:47:07;;;;;;;10.90;5.20;;;15.80;99.90;;;;;;4995172;28;20223;-48
2023/10/09 01:49:43;;;;;;;8.60;5.13;;;15.80;99.90;;;;;;4995639;28;20198;-47
2023/10/09 02:07:52;;;;;;;12.17;5.23;;;15.70;99.90;;;;;;5016352;28;20247;-43
2023/10/09 02:10:33;;;;;;;10.60;5.27;;;15.70;99.90;;;;;;5015316;28;20220;-43
2023/10/09 02:13:11;;;;;;;10.70;5.03;;;15.70;99.90;;;;;;5016336;28;20184;-43
2023/10/09 02:15:58;;;;;;;8.03;5.23;;;15.70;99.90;;;;;;5015548;28;20239;-43
2023/10/09 02:18:39;;;;;;;13.30;5.33;;;15.70;99.90;;;;;;5016258;28;20176;-41
2023/10/09 02:21:15;;;;;;;9.83;5.60;;;15.60;99.90;;;;;;5016043;28;20197;-43
2023/10/09 02:26:08;;;;;;;9.33;5.30;;;15.60;99.90;;;;;;5015005;28;20209;-43
2023/10/09 02:28:36;;;;;;;8.20;4.93;;;15.60;99.90;;;;;;4998291;28;20185;-41
2023/10/09 02:31:12;;;;;;;8.07;5.20;;;15.60;99.90;;;;;;5014444;28;20252;-43
2023/10/09 02:33:40;;;;;;;8.17;5.30;;;15.70;99.90;;;;;;4997992;28;20185;-42
2023/10/09 02:36:12;;;;;;;9.43;5.63;;;15.70;99.90;;;;;;5013876;28;20232;-43
2023/10/09 02:38:42;;;;;;;8.57;5.13;;;15.70;99.90;;;;;;5014488;28;20219;-44
2023/10/09 02:43:44;;;;;;;9.23;5.47;;;15.60;99.90;;;;;;5015412;28;20236;-43
2023/10/09 02:46:18;;;;;;;9.77;5.60;;;15.60;99.90;;;;;;5014689;28;20217;-47
2023/10/09 02:48:52;;;;;;;8.40;5.10;;;15.60;99.90;;;;;;4998343;28;20174;-47
2023/10/09 02:54:27;;;;;;;12.17;6.20;;;15.60;99.90;;;;;;5015937;28;20165;-41
2023/10/09 02:57:05;;;;;;;9.50;5.50;;;15.60;99.90;;;;;;5013970;28;20189;-43
2023/10/09 02:59:31;;;;;;;11.77;5.37;;;15.60;99.90;;;;;;5015029;28;20695;-41
2023/10/09 03:01:59;;;;;;;12.37;5.53;;;15.60;99.90;;;;;;5015318;28;20193;-41
2023/10/09 03:04:34;;;;;;;10.90;5.87;;;15.70;99.90;;;;;;4997465;28;20576;-40
2023/10/09 03:07:01;;;;;;;11.43;5.90;;;15.70;99.90;;;;;;5014151;28;20217;-45
2023/10/09 03:09:27;;;;;;;9.27;5.53;;;15.70;99.90;;;;;;5014757;28;20177;-42
2023/10/09 03:12:09;;;;;;;12.97;5.57;;;15.70;99.90;;;;;;5013135;28;20224;-42
2023/10/09 03:14:38;;;;;;;8.97;5.70;;;15.70;99.90;;;;;;5014827;28;20165;-43
2023/10/09 03:17:11;;;;;;;11.87;5.17;;;15.70;99.90;;;;;;5013491;28;20219;-41
2023/10/09 03:19:39;;;;;;;12.60;6.33;;;15.70;99.90;;;;;;5014613;28;20213;-42
2023/10/09 03:22:11;;;;;;;11.63;5.47;;;15.70;99.90;;;;;;5014691;28;20232;-45
2023/10/09 03:24:39;;;;;;;12.83;5.80;;;15.70;99.90;;;;;;5015032;28;20170;-42
2023/10/09 03:27:05;;;;;;;7.77;5.40;;;15.70;99.90;;;;;;5013798;28;20554;-43
2023/10/09 03:29:30;;;;;;;8.37;5.70;;;15.70;99.90;;;;;;5013295;28;20740;-42
2023/10/09 03:32:00;;;;;;;9.13;6.00;;;15.70;99.90;;;;;;5013224;28;20362;-43
2023/10/09 03:43:01;;;;;;;10.40;5.80;;;15.70;99.90;;;;;;5188669;22;20230;-48
2023/10/09 03:45:31;;;;;;;10.30;5.93;;;15.70;99.90;;;;;;4992484;28;20244;-48
2023/10/09 03:48:21;;;;;;;14.97;6.37;;;15.70;99.90;;;;;;4994924;28;20210;-48
2023/10/09 03:50:47;;;;;;;9.13;5.47;;;15.60;99.90;;;;;;4994842;28;20197;-46
2023/10/09 03:53:17;;;;;;;11.83;6.03;;;15.60;99.90;;;;;;4976635;28;20193;-47
2023/10/09 03:55:42;;;;;;;11.37;6.67;;;15.60;99.90;;;;;;4977261;28;20182;-47
2023/10/09 03:58:18;;;;;;;8.30;5.37;;;15.60;99.90;;;;;;4977354;28;20230;-48
2023/10/09 04:00:46;;;;;;;11.47;5.77;;;15.60;99.90;;;;;;4994549;28;20193;-47
2023/10/09 04:03:14;;;;;;;9.17;6.10;;;15.70;99.90;;;;;;4977657;28;20308;-46
2023/10/09 04:05:42;;;;;;;14.97;6.20;;;15.80;99.90;;;;;;4976497;28;20208;-49
2023/10/09 04:08:28;;;;;;;11.20;6.07;;;15.70;99.90;;;;;;4994370;28;20171;-47
2023/10/09 04:11:01;;;;;;;10.37;5.97;;;15.80;99.90;;;;;;4974285;28;20229;-47
2023/10/09 04:13:40;;;;;;;9.37;5.80;;;15.80;99.90;;;;;;4993343;28;20190;-47
2023/10/09 04:16:51;;;;;;;10.80;6.30;;;15.80;99.90;;;;;;4976997;28;20227;-49
2023/10/09 04:19:11;;;;;;;11.33;5.80;;;15.80;99.90;;;;;;4992146;28;20277;-48
2023/10/09 04:21:37;;;;;;;10.53;6.07;;;15.80;99.90;;;;;;4994514;28;20162;-47
2023/10/09 04:26:47;;;;;;;12.63;6.23;;;15.70;99.90;;;;;;4994671;28;20284;-48
2023/10/09 04:32:18;;;;;;;13.73;6.27;;;15.70;99.90;;;;;;4972395;28;20558;-47
2023/10/09 04:37:37;;;;;;;13.67;6.70;;;15.80;99.90;;;;;;4971420;28;20182;-47
2023/10/09 04:40:41;;;;;;;9.83;6.00;;;15.80;99.90;;;;;;4994019;28;20249;-48
2023/10/09 04:43:06;;;;;;;10.30;6.33;;;15.80;99.90;;;;;;4993707;28;20196;-48
2023/10/09 04:49:26;;;;;;;10.83;5.90;;;15.90;99.90;;;;;;4993885;28;20173;-48
2023/10/09 04:52:18;;;;;;;10.47;6.00;;;15.90;99.90;;;;;;4993139;28;20195;-47
2023/10/09 04:55:19;;;;;;;14.07;6.57;;;15.80;99.90;;;;;;4993418;28;20194;-48
2023/10/09 04:58:12;;;;;;;9.70;5.50;;;15.90;99.90;;;;;;4992759;28;20194;-48
2023/10/09 05:00:47;;;;;;;17.73;6.37;;;15.90;99.90;;;;;;4991927;28;20210;-46
2023/10/09 05:03:27;;;;;;;11.70;6.37;;;15.90;99.90;;;;;;4994050;28;20202;-49
2023/10/09 05:06:20;;;;;;;14.57;6.83;;;15.90;99.90;;;;;;4976252;28;20642;-48
2023/10/09 05:08:55;;;;;;;10.70;6.90;;;15.90;99.90;;;;;;4993310;28;20202;-46
2023/10/09 05:14:17;;;;;;;15.83;7.37;;;15.90;99.90;;;;;;4993964;28;20274;-47
2023/10/09 05:17:01;;;;;;;10.13;6.53;;;15.90;99.90;;;;;;4993832;28;20163;-47
2023/10/09 05:25:15;;;;;;;11.97;6.90;;;15.90;99.90;;;;;;4984954;28;20555;-48
2023/10/09 05:28:24;;;;;;;11.50;7.07;;;15.80;99.90;;;;;;4962818;28;20205;-48
2023/10/09 05:30:41;;;;;;;13.17;7.00;;;15.80;99.90;;;;;;4991172;28;20210;-48
2023/10/09 06:08:24;;;;;;;13.37;6.37;;;15.70;99.90;;;;;;5016196;28;20224;-42
2023/10/09 06:11:05;;;;;;;13.13;7.50;;;15.70;99.90;;;;;;4998543;28;20225;-42
2023/10/09 06:24:42;;;;;;;13.20;6.50;;;15.60;99.90;;;;;;5015484;28;20191;-41
2023/10/09 06:35:22;;;;;;;17.90;7.43;;;15.80;99.90;;;;;;5016176;28;20158;-48
2023/10/09 06:43:09;;;;;;;11.73;6.47;;;15.90;99.90;;;;;;5015597;28;20174;-47
2023/10/09 06:45:54;;;;;;;10.40;6.10;;;15.90;99.90;;;;;;5009554;28;20223;-46
2023/10/09 06:54:04;;;;;;;10.90;6.83;;;16.00;99.90;;;;;;5015694;28;20228;-47
2023/10/09 06:59:04;;;;;;;10.90;6.47;;;16.00;99.90;;;;;;5015552;28;20178;-48
2023/10/09 07:01:49;;;;;;;11.33;6.70;;;16.00;99.90;;;;;;5015499;28;20668;-48
2023/10/09 07:04:45;;;;;;;13.70;6.67;;;16.10;99.90;;;;;;5011434;28;20219;-49
2023/10/09 07:07:12;;;;;;;14.97;6.27;;;16.10;99.90;;;;;;5014648;28;20231;-48
2023/10/09 07:09:42;;;;;;;16.10;5.93;;;16.10;99.90;;;;;;5014997;28;20205;-47
2023/10/09 07:12:13;;;;;;;12.20;6.10;;;16.20;99.90;;;;;;5015212;28;20642;-49
2023/10/09 07:17:43;;;;;;;12.57;6.37;;;16.20;99.90;;;;;;5015084;28;20185;-48
2023/10/09 07:20:13;;;;;;;17.07;6.50;;;16.20;99.90;;;;;;5014661;28;20197;-47
2023/10/09 07:23:13;;;;;;;12.77;6.53;;;16.20;99.90;;;;;;5015224;28;20177;-46
2023/10/09 07:25:54;;;;;;;11.63;6.40;;;16.30;99.90;;;;;;4998687;28;20193;-47
2023/10/09 07:28:43;;;;;;;11.87;6.90;;;16.20;99.90;;;;;;5015240;28;20546;-47
2023/10/09 07:31:39;;;;;;;11.87;6.53;;;16.20;99.90;;;;;;5006955;28;20241;-48
2023/10/09 07:34:30;;;;;;;15.03;7.13;;;16.20;99.90;;;;;;5013116;28;20200;-48
2023/10/09 07:36:56;;;;;;;12.93;6.73;;;16.20;99.90;;;;;;5013951;28;20218;-48
2023/10/09 07:42:53;;;;;;;10.60;6.73;;;16.30;99.90;;;;;;5075522;23;20306;-40
2023/10/09 07:48:02;;;;;;;16.47;6.83;;;16.20;99.90;;;;;;5014634;28;20193;-44
2023/10/09 07:50:38;;;;;;;11.47;7.20;;;16.30;99.90;;;;;;5014265;28;20189;-42
2023/10/09 08:00:00;;;;;;;14.93;7.40;;;16.40;99.90;;;;;;4572030;22;20264;-48
2023/10/09 08:02:32;;;;;;;13.37;7.33;;;16.40;99.90;;;;;;5013011;28;20220;-48
2023/10/09 08:05:04;;;;;;;11.30;6.73;;;16.50;99.90;;;;;;5012884;28;20580;-47
2023/10/09 08:07:54;;;;;;;13.67;7.07;;;16.40;99.90;;;;;;5013912;28;20719;-48
2023/10/09 08:18:51;;;;;;;12.80;7.27;;;16.70;99.90;;;;;;5013889;28;20212;-41
2023/10/09 08:21:41;;;;;;;13.47;7.33;;;16.80;99.90;;;;;;5014738;28;20209;-41
2023/10/09 08:24:32;;;;;;;12.67;7.30;;;16.90;99.90;;;;;;5013675;28;20545;-43
2023/10/09 08:30:44;;;;;;;14.87;8.57;;;17.00;99.90;;;;;;5013590;28;20201;-44
2023/10/09 08:33:28;;;;;;;16.50;8.67;;;17.10;99.90;;;;;;5013247;28;20236;-42
2023/10/09 08:35:55;;;;;;;21.27;9.33;;;17.10;99.90;;;;;;5013455;28;20598;-44
2023/10/09 08:38:24;;;;;;;23.57;9.17;;;17.10;99.90;;;;;;5012741;28;20505;-44
2023/10/09 08:40:58;;;;;;;15.60;9.13;;;17.20;99.90;;;;;;5012185;28;20676;-42
2023/10/09 08:57:53;;;;;;;13.20;7.97;;;17.70;99.90;;;;;;5011717;28;20283;-41
2023/10/09 09:00:25;;;;;;;14.90;8.00;;;17.70;99.90;;;;;;5013682;28;20201;-42
2023/10/09 09:02:56;;;;;;;17.67;7.93;;;17.90;99.90;;;;;;5014276;28;20182;-44
2023/10/09 09:05:24;;;;;;;18.77;7.80;;;17.90;99.90;;;;;;5013739;28;20249;-43
2023/10/09 09:07:56;;;;;;;17.50;8.63;;;17.90;99.90;;;;;;5013230;28;20237;-42
2023/10/09 09:20:40;;;;;;;17.27;8.37;;;18.30;99.90;;;;;;5010102;28;20225;-44
2023/10/09 09:23:12;;;;;;;23.03;8.10;;;18.40;99.90;;;;;;4995547;28;20281;-43
2023/10/09 09:25:58;;;;;;;16.20;7.50;;;18.40;99.90;;;;;;5017315;28;20154;-43
2023/10/09 09:28:38;;;;;;;13.87;7.77;;;18.50;99.90;;;;;;5013949;28;20186;-42
2023/10/09 09:40:31;;;;;;;10.57;7.07;;;18.90;99.90;;;;;;5013760;28;20783;-41
2023/10/09 09:43:21;;;;;;;15.77;6.90;;;19.00;99.90;;;;;;5000497;28;20256;-44
2023/10/09 09:46:07;;;;;;;13.67;7.17;;;19.00;99.90;;;;;;5016871;28;20237;-44
2023/10/09 09:48:44;;;;;;;14.97;7.20;;;19.00;99.90;;;;;;4996552;28;20182;-44
2023/10/09 10:01:35;;;;;;;13.67;6.40;;;19.30;99.90;;;;;;2742406;22;20224;-42
2023/10/09 10:04:21;;;;;;;16.00;6.40;;;19.40;99.90;;;;;;4999143;28;20174;-43
2023/10/09 10:06:49;;;;;;;13.57;6.40;;;19.50;98.70;;;;;;5016491;28;20193;-44
2023/10/09 10:09:41;;;;;;;12.37;6.20;;;19.60;99.90;;;;;;4998671;28;20190;-44
2023/10/09 10:12:14;;;;;;;13.80;5.50;;;19.70;98.90;;;;;;5016108;28;20177;-43
2023/10/09 10:15:15;;;;;;;11.40;5.73;;;19.80;94.80;;;;;;5015379;28;20165;-41
2023/10/09 10:18:35;;;;;;;13.27;6.07;;;19.80;90.00;;;;;;5016013;28;20284;-42
2023/10/09 10:21:16;;;;;;;14.03;5.37;;;19.90;93.70;;;;;;5014548;28;20201;-44
2023/10/09 10:23:48;;;;;;;11.60;5.03;;;19.90;79.90;;;;;;4999270;28;20593;-48
2023/10/09 10:26:27;;;;;;;11.07;5.10;;;20.00;87.10;;;;;;5014451;28;20224;-43
2023/10/09 10:32:18;;;;;;;9.53;4.50;;;20.00;79.90;;;;;;5006817;28;20296;-43
2023/10/09 10:34:49;;;;;;;12.23;5.30;;;20.10;89.40;;;;;;5015475;28;20165;-42
2023/10/09 10:37:28;;;;;;;10.00;4.93;;;20.10;92.80;;;;;;5015869;28;20186;-41
2023/10/09 10:39:59;;;;;;;8.00;4.23;;;20.10;78.10;;;;;;5015552;28;20209;-41
2023/10/09 10:42:34;;;;;;;7.33;4.43;;;20.20;73.70;;;;;;5013327;28;20220;-43
2023/10/09 10:45:34;;;;;;;10.73;4.23;;;20.20;78.90;;;;;;5016024;28;20166;-41
2023/10/09 10:47:49;;;;;;;7.53;4.00;;;20.20;69.30;;;;;;5015143;28;20264;-44
2023/10/09 10:53:16;;;;;;;9.27;4.70;;;20.40;65.00;;;;;;5015651;28;20172;-43
2023/10/09 10:58:47;;;;;;;7.57;4.07;;;20.40;69.00;;;;;;5001454;28;20193;-44
2023/10/09 11:01:15;;;;;;;10.67;5.10;;;20.60;70.10;;;;;;5015251;28;20217;-43
2023/10/09 11:27:50;;;;;;;12.67;5.63;;;20.80;82.40;;;;;;4983891;28;20241;-47
2023/10/09 11:30:32;;;;;;;15.30;5.87;;;20.90;67.60;;;;;;4994863;28;20289;-48
2023/10/09 11:36:38;;;;;;;20.40;7.20;;;20.90;75.40;;;;;;4994998;28;20201;-47
2023/10/09 12:14:53;;;;;;;8.90;5.57;;;21.30;83.10;;;;;;3251723;23;20323;-42
2023/10/09 12:17:25;;;;;;;8.43;4.60;;;21.30;66.40;;;;;;5012586;28;20220;-43
2023/10/09 12:19:51;;;;;;;10.63;5.23;;;21.40;83.80;;;;;;5012646;28;20760;-43
2023/10/09 12:22:17;;;;;;;8.83;4.90;;;21.50;87.00;;;;;;5014105;28;20260;-45
2023/10/09 12:24:43;;;;;;;9.80;5.57;;;21.40;69.70;;;;;;5012672;28;20532;-43
2023/10/09 12:27:11;;;;;;;12.73;5.67;;;21.50;69.40;;;;;;5013792;28;20609;-44
2023/10/09 12:29:37;;;;;;;10.90;6.03;;;21.50;77.50;;;;;;5012584;28;20198;-43
2023/10/09 12:32:06;;;;;;;11.97;5.60;;;21.60;52.10;;;;;;5013712;28;20170;-43
2023/10/09 12:34:32;;;;;;;8.97;5.53;;;21.50;70.50;;;;;;5012548;28;20599;-43
2023/10/09 12:37:02;;;;;;;13.97;5.83;;;21.60;73.20;;;;;;5012903;28;20181;-47
2023/10/09 12:39:33;;;;;;;10.07;5.83;;;21.60;83.40;;;;;;5022355;23;20240;-45
2023/10/09 12:42:06;;;;;;;12.60;5.70;;;21.60;82.00;;;;;;5014121;28;20176;-43
2023/10/09 12:44:42;;;;;;;12.83;5.57;;;21.60;84.70;;;;;;5013866;28;20249;-41
2023/10/09 12:47:11;;;;;;;10.70;5.73;;;21.60;87.30;;;;;;5013543;28;20189;-43
2023/10/09 12:49:40;;;;;;;13.43;5.43;;;21.60;92.10;;;;;;5013651;28;20225;-42
2023/10/09 12:52:16;;;;;;;12.60;5.87;;;21.60;83.50;;;;;;5013846;28;20174;-43
2023/10/09 12:54:46;;;;;;;11.80;5.37;;;21.70;86.10;;;;;;5013796;28;20161;-43
2023/10/09 12:57:13;;;;;;;8.23;4.97;;;21.70;75.00;;;;;;5013650;28;20189;-44
2023/10/09 12:59:45;;;;;;;12.90;5.43;;;21.70;80.30;;;;;;5017588;28;20205;-42
2023/10/09 13:02:28;;;;;;;12.30;5.00;;;21.70;86.00;;;;;;5000618;28;20173;-44
2023/10/09 13:04:57;;;;;;;11.00;5.17;;;21.70;80.20;;;;;;5017339;28;20231;-43
2023/10/09 13:07:23;;;;;;;12.13;4.90;;;21.70;85.60;;;;;;5017182;28;20691;-44
2023/10/09 13:12:34;;;;;;;10.17;4.83;;;21.70;80.20;;;;;;5017562;28;20169;-42
2023/10/09 13:14:59;;;;;;;8.77;4.50;;;21.70;84.50;;;;;;5017203;28;20648;-43
2023/10/09 13:17:27;;;;;;;12.23;5.10;;;21.70;84.70;;;;;;5015961;28;20216;-42
2023/10/09 13:19:54;;;;;;;8.03;4.70;;;21.70;91.00;;;;;;5017275;28;20283;-43
2023/10/09 13:22:22;;;;;;;9.43;4.90;;;21.70;91.60;;;;;;5015993;28;20361;-43
2023/10/09 13:24:52;;;;;;;9.43;4.90;;;21.70;68.60;;;;;;5017101;28;20193;-43
2023/10/09 13:27:21;;;;;;;16.07;5.40;;;21.70;90.30;;;;;;5016820;28;20561;-43
2023/10/09 13:29:48;;;;;;;9.30;4.70;;;21.60;88.70;;;;;;5016785;28;20198;-43
2023/10/09 13:32:14;;;;;;;9.47;5.07;;;21.60;85.00;;;;;;5015807;28;20179;-44
2023/10/09 13:34:45;;;;;;;14.30;5.90;;;21.60;70.70;;;;;;5015669;28;20188;-43
2023/10/09 13:37:13;;;;;;;10.27;5.10;;;21.60;78.50;;;;;;5016833;28;20178;-43
2023/10/09 13:39:56;;;;;;;10.73;5.30;;;21.50;83.10;;;;;;5016856;28;20221;-42
2023/10/09 13:42:25;;;;;;;11.00;5.17;;;21.50;81.30;;;;;;5015587;28;20201;-42
2023/10/09 13:44:53;;;;;;;8.83;5.33;;;21.50;92.50;;;;;;5016653;28;20637;-42
2023/10/09 13:47:20;;;;;;;11.87;5.57;;;21.50;94.90;;;;;;5016504;28;20202;-41
2023/10/09 13:49:50;;;;;;;13.20;5.27;;;21.50;87.40;;;;;;5016744;28;20197;-44
2023/10/09 13:52:21;;;;;;;10.37;4.67;;;21.50;85.40;;;;;;5016794;28;20177;-44
2023/10/09 13:54:50;;;;;;;8.47;5.23;;;21.50;67.20;;;;;;5015243;28;20180;-44
2023/10/09 13:57:16;;;;;;;12.20;5.37;;;21.50;72.70;;;;;;5016454;28;20269;-43
2023/10/09 13:59:52;;;;;;;10.27;5.20;;;21.50;85.00;;;;;;5016656;28;20288;-43
2023/10/09 14:02:18;;;;;;;10.13;5.20;;;21.50;86.50;;;;;;5016611;28;20216;-44
2023/10/09 14:07:20;;;;;;;10.37;5.57;;;21.40;83.70;;;;;;5014493;28;20233;-41
2023/10/09 14:12:14;;;;;;;9.83;5.57;;;21.40;92.20;;;;;;5016534;28;20276;-43
2023/10/09 14:14:49;;;;;;;10.00;6.10;;;21.40;80.50;;;;;;5016090;28;20664;-42
2023/10/09 14:17:19;;;;;;;9.17;5.20;;;21.40;82.00;;;;;;5016343;28;20170;-43
2023/10/09 14:19:47;;;;;;;8.40;5.30;;;21.40;91.20;;;;;;4998449;28;20213;-43
2023/10/09 14:22:18;;;;;;;9.23;5.07;;;21.40;87.50;;;;;;5016075;28;20173;-40
2023/10/09 14:24:55;;;;;;;11.97;6.03;;;21.40;84.50;;;;;;4998668;28;20188;-43
2023/10/09 14:27:24;;;;;;;12.33;5.73;;;21.30;72.70;;;;;;5016107;28;20204;-43
2023/10/09 14:29:50;;;;;;;15.80;6.00;;;21.30;88.30;;;;;;4998215;28;20213;-42
2023/10/09 14:32:16;;;;;;;13.83;5.97;;;21.20;91.50;;;;;;5016181;28;20177;-41
2023/10/09 14:37:24;;;;;;;11.03;5.70;;;21.20;91.80;;;;;;3337481;26;20287;-44
2023/10/09 14:39:52;;;;;;;9.10;5.60;;;21.10;92.00;;;;;;5015920;28;20788;-44
2023/10/09 14:42:46;;;;;;;9.50;5.67;;;21.10;78.40;;;;;;3300809;26;20214;-44
2023/10/09 14:45:15;;;;;;;12.77;6.33;;;21.00;93.30;;;;;;4976676;28;20225;-42
2023/10/09 14:47:42;;;;;;;9.37;6.10;;;21.00;94.40;;;;;;4975149;28;20211;-43
2023/10/09 14:50:09;;;;;;;12.67;5.57;;;21.00;97.90;;;;;;4976753;28;20198;-43
2023/10/09 14:52:38;;;;;;;9.43;5.53;;;21.00;98.50;;;;;;4976636;28;20187;-42
2023/10/09 14:55:05;;;;;;;9.17;5.33;;;21.10;97.90;;;;;;4976236;28;20190;-43
2023/10/09 14:57:34;;;;;;;9.10;5.17;;;21.00;98.20;;;;;;4976542;28;20191;-43
2023/10/09 15:00:01;;;;;;;12.57;6.30;;;21.10;99.70;;;;;;4976109;28;20673;-44
2023/10/09 15:02:26;;;;;;;10.30;5.83;;;21.10;98.90;;;;;;4976188;28;20191;-42
2023/10/09 15:04:52;;;;;;;12.23;6.30;;;21.10;99.10;;;;;;4976335;28;20197;-42
2023/10/09 15:07:18;;;;;;;9.77;6.13;;;21.10;97.90;;;;;;4974722;28;20207;-44
2023/10/09 15:09:44;;;;;;;10.87;6.10;;;21.00;97.70;;;;;;4976025;28;20197;-43
2023/10/09 15:12:11;;;;;;;9.80;6.03;;;21.00;99.90;;;;;;4974846;28;20179;-43
2023/10/09 15:14:39;;;;;;;12.20;5.90;;;21.00;99.90;;;;;;4975990;28;20254;-42
2023/10/09 15:17:06;;;;;;;11.60;6.53;;;20.90;99.90;;;;;;4976149;28;20191;-43
2023/10/09 15:19:32;;;;;;;10.50;5.47;;;20.90;99.90;;;;;;4974451;28;20203;-43
2023/10/09 15:21:58;;;;;;;11.77;5.60;;;20.80;99.90;;;;;;4975820;28;20682;-43
2023/10/09 15:24:25;;;;;;;10.30;6.07;;;20.80;99.90;;;;;;4975736;28;20186;-42
2023/10/09 15:26:57;;;;;;;9.80;5.00;;;20.90;99.90;;;;;;4975879;28;20311;-44
2023/10/09 15:29:28;;;;;;;12.97;6.13;;;20.80;99.90;;;;;;4975583;28;20260;-42
2023/10/09 15:32:14;;;;;;;16.00;6.20;;;20.70;99.90;;;;;;4975864;28;20167;-43
2023/10/09 15:34:41;;;;;;;10.90;5.70;;;20.70;99.90;;;;;;4975576;28;20207;-41
2023/10/09 15:37:10;;;;;;;10.93;6.20;;;20.60;99.90;;;;;;4974233;28;20710;-42
2023/10/09 15:39:36;;;;;;;15.93;6.70;;;20.50;99.90;;;;;;4975340;28;20750;-42
2023/10/09 15:42:06;;;;;;;10.53;6.07;;;20.50;99.90;;;;;;4958042;28;20211;-43
2023/10/09 15:44:38;;;;;;;11.13;6.13;;;20.30;99.90;;;;;;4975397;28;20183;-43
2023/10/09 15:47:08;;;;;;;13.70;6.40;;;20.30;99.90;;;;;;4975710;28;20558;-42
2023/10/09 15:49:34;;;;;;;10.60;5.87;;;20.20;99.90;;;;;;4975509;28;20287;-42
2023/10/09 15:52:03;;;;;;;14.33;6.43;;;20.10;99.90;;;;;;4974161;28;20258;-43
2023/10/09 15:54:29;;;;;;;8.60;5.20;;;20.10;99.90;;;;;;4975167;28;20179;-42
2023/10/09 15:56:55;;;;;;;10.07;5.63;;;20.00;99.90;;;;;;4975314;28;20179;-44
2023/10/09 15:59:24;;;;;;;10.83;6.00;;;20.00;99.90;;;;;;4975280;28;20187;-44
2023/10/09 16:01:51;;;;;;;14.30;5.97;;;19.90;99.90;;;;;;4975349;28;20530;-43
2023/10/09 16:04:17;;;;;;;9.53;5.73;;;19.90;99.90;;;;;;4975369;28;20183;-43
2023/10/09 16:06:43;;;;;;;12.43;6.47;;;19.90;99.90;;;;;;4974890;28;20211;-43
2023/10/09 16:09:14;;;;;;;8.67;5.90;;;19.80;99.90;;;;;;4975180;28;20187;-40
2023/10/09 16:11:40;;;;;;;11.87;5.80;;;19.80;99.90;;;;;;4974946;28;20630;-44
2023/10/09 16:14:09;;;;;;;9.23;5.57;;;19.80;99.90;;;;;;4974898;28;20206;-44
2023/10/09 16:16:41;;;;;;;12.57;5.90;;;19.70;99.90;;;;;;4974838;28;20195;-44
2023/10/09 16:19:10;;;;;;;9.80;5.80;;;19.70;99.90;;;;;;4973631;28;20179;-42
2023/10/09 16:21:37;;;;;;;11.67;6.40;;;19.60;99.90;;;;;;4975081;28;20553;-42
2023/10/09 16:24:15;;;;;;;11.57;5.70;;;19.60;99.90;;;;;;4973691;28;20269;-48
2023/10/09 16:29:22;;;;;;;10.07;6.00;;;19.60;99.90;;;;;;2376289;23;20236;-43
2023/10/09 16:31:49;;;;;;;13.70;6.00;;;19.50;99.90;;;;;;5013596;28;20273;-42
2023/10/09 16:34:15;;;;;;;13.47;6.67;;;19.40;99.90;;;;;;5012091;28;20173;-42
2023/10/09 16:36:41;;;;;;;11.93;5.63;;;19.40;99.90;;;;;;5013612;28;20192;-43
2023/10/09 16:39:18;;;;;;;10.77;5.50;;;19.40;99.90;;;;;;5014036;28;20188;-43
2023/10/09 16:41:47;;;;;;;11.43;5.67;;;19.30;99.90;;;;;;5013784;28;20157;-43
2023/10/09 16:44:16;;;;;;;10.67;5.93;;;19.30;99.90;;;;;;5013576;28;20265;-42
2023/10/09 16:46:46;;;;;;;9.50;5.40;;;19.20;99.90;;;;;;5012088;28;20263;-42
2023/10/09 16:49:18;;;;;;;14.23;6.30;;;19.20;99.90;;;;;;5013728;28;20192;-42
2023/10/09 16:51:44;;;;;;;13.83;6.33;;;19.10;99.90;;;;;;5013512;28;20617;-42
2023/10/09 16:54:15;;;;;;;10.13;5.53;;;19.10;99.90;;;;;;5013513;28;20189;-44
2023/10/09 16:56:42;;;;;;;11.87;5.90;;;19.00;99.90;;;;;;5012152;28;20178;-44
2023/10/09 16:59:36;;;;;;;8.97;5.77;;;19.00;99.90;;;;;;5012517;28;20656;-42
2023/10/09 17:02:07;;;;;;;9.13;5.60;;;18.80;99.90;;;;;;5012969;28;20250;-42
2023/10/09 17:04:36;;;;;;;13.07;6.20;;;18.80;99.90;;;;;;5013335;28;20264;-42
2023/10/09 17:07:04;;;;;;;12.73;6.00;;;18.70;99.90;;;;;;5013154;28;20205;-43
2023/10/09 17:09:31;;;;;;;15.93;5.77;;;18.60;99.90;;;;;;5011957;28;20198;-44
2023/10/09 17:11:57;;;;;;;14.07;6.27;;;18.50;99.90;;;;;;5011998;28;20177;-43
2023/10/09 17:14:26;;;;;;;12.53;6.17;;;18.50;99.90;;;;;;5011932;28;20186;-42
2023/10/09 17:16:54;;;;;;;13.73;6.23;;;18.40;99.90;;;;;;5011968;28;20641;-43
2023/10/09 17:19:23;;;;;;;10.43;6.50;;;18.30;99.90;;;;;;5012047;28;20247;-43
2023/10/09 17:21:49;;;;;;;12.87;5.73;;;18.30;99.90;;;;;;5013396;28;20668;-44
2023/10/09 17:24:20;;;;;;;13.73;6.50;;;18.20;99.90;;;;;;5013852;28;20197;-42
2023/10/09 17:26:50;;;;;;;10.90;6.03;;;18.10;99.90;;;;;;5013300;28;20198;-42
2023/10/09 17:29:19;;;;;;;9.07;5.53;;;18.10;99.90;;;;;;4996081;28;20198;-41
2023/10/09 17:31:44;;;;;;;8.73;5.50;;;18.00;99.90;;;;;;5013624;28;20178;-44
2023/10/09 17:34:10;;;;;;;18.13;6.23;;;17.90;99.90;;;;;;5013151;28;20188;-43
2023/10/09 17:36:36;;;;;;;10.47;6.30;;;17.90;99.90;;;;;;5013138;28;20188;-42
2023/10/09 17:39:04;;;;;;;12.23;6.53;;;17.90;99.90;;;;;;5013407;28;20181;-42
2023/10/09 17:41:32;;;;;;;7.87;5.43;;;17.80;99.90;;;;;;5012219;28;20615;-42
2023/10/09 17:44:01;;;;;;;8.57;5.50;;;17.80;99.90;;;;;;5013166;28;20563;-42
2023/10/09 17:46:28;;;;;;;10.87;6.27;;;17.70;99.90;;;;;;5016621;28;20189;-42
2023/10/09 17:48:56;;;;;;;11.73;6.07;;;17.70;99.90;;;;;;5016745;28;20235;-41
2023/10/09 17:51:22;;;;;;;8.83;6.13;;;17.60;99.90;;;;;;5016553;28;20240;-42
2023/10/09 17:53:49;;;;;;;8.67;5.97;;;17.60;99.90;;;;;;5016901;28;20177;-44
2023/10/09 17:56:18;;;;;;;8.90;6.30;;;17.60;99.90;;;;;;5017041;28;20284;-43
2023/10/09 17:58:49;;;;;;;12.23;6.63;;;17.60;99.90;;;;;;5017114;28;20165;-43
2023/10/09 18:01:17;;;;;;;9.43;6.10;;;17.50;99.90;;;;;;5016358;28;20233;-46
2023/10/09 18:03:44;;;;;;;11.60;6.23;;;17.50;99.90;;;;;;5016758;28;20562;-47
2023/10/09 18:06:16;;;;;;;12.63;6.40;;;17.40;99.90;;;;;;5016622;28;20187;-47